createdAt,value
2018-08-19T00:01:02.584Z,100947.38
2018-08-19T00:03:34.665Z,100945.36
2018-08-19T00:06:06.198Z,100947.91
2018-08-19T00:08:37.753Z,100950.02
2018-08-19T00:11:10.651Z,100956.90
2018-08-19T00:13:41.615Z,100956.70
2018-08-19T00:16:13.717Z,100960.83
2018-08-19T00:18:45.310Z,100954.38
2018-08-19T00:21:16.833Z,100945.79
2018-08-19T00:23:50.701Z,100952.66
2018-08-19T00:26:22.220Z,100949.61
2018-08-19T00:28:53.753Z,100948.66
2018-08-19T00:31:25.359Z,100944.84
2018-08-19T00:33:57.415Z,100951.72
2018-08-19T00:36:35.851Z,100951.41
2018-08-19T00:39:10.508Z,100946.95
2018-08-19T00:41:41.859Z,100949.70
2018-08-19T00:44:13.399Z,100949.39
2018-08-19T00:46:44.784Z,100948.86
2018-08-19T00:49:16.196Z,100950.55
2018-08-19T00:51:52.681Z,100948.86
2018-08-19T00:54:24.203Z,100953.29
2018-08-19T00:56:57.344Z,100955.09
2018-08-19T00:59:33.311Z,100953.95
2018-08-19T01:02:04.769Z,100952.58
2018-08-19T01:04:36.226Z,100960.48
2018-08-19T01:07:07.692Z,100954.25
2018-08-19T01:09:39.225Z,100956.89
2018-08-19T01:12:10.756Z,100955.22
2018-08-19T01:14:42.311Z,100958.27
2018-08-19T01:17:13.800Z,100962.40
2018-08-19T01:19:45.301Z,100943.13
2018-08-19T01:22:16.770Z,100958.16
2018-08-19T01:24:48.324Z,100952.66
2018-08-19T01:27:19.853Z,100953.20
2018-08-19T01:29:51.362Z,100951.09
2018-08-19T01:32:23.978Z,100958.70
2018-08-19T01:34:55.534Z,100949.91
2018-08-19T01:37:26.882Z,100955.11
2018-08-19T01:39:58.413Z,100958.25
2018-08-19T01:42:29.757Z,100952.25
2018-08-19T01:45:01.313Z,100948.33
2018-08-19T01:47:32.750Z,100949.70
2018-08-19T02:01:12.451Z,100932.02
2018-08-19T02:03:43.623Z,100939.32
2018-08-19T02:06:14.777Z,100940.27
2018-08-19T02:08:45.877Z,100935.84
2018-08-19T02:11:31.630Z,100946.00
2018-08-19T02:14:02.703Z,100945.05
2018-08-19T02:16:33.725Z,100952.23
2018-08-19T02:19:05.315Z,100946.09
2018-08-19T02:21:36.589Z,100946.95
2018-08-19T02:24:08.309Z,100945.05
2018-08-19T02:26:39.606Z,100944.60
2018-08-19T02:29:37.702Z,100939.64
2018-08-19T02:32:11.210Z,100939.33
2018-08-19T02:34:44.556Z,100931.39
2018-08-19T02:37:17.665Z,100928.64
2018-08-19T02:39:51.434Z,100929.29
2018-08-19T02:42:30.516Z,100923.68
2018-08-19T02:45:05.278Z,100922.50
2018-08-19T02:47:37.224Z,100925.25
2018-08-19T02:50:08.481Z,100930.25
2018-08-19T02:52:40.308Z,100923.03
2018-08-19T02:55:11.589Z,100920.71
2018-08-19T02:57:42.710Z,100930.33
2018-08-19T03:00:14.667Z,100928.23
2018-08-19T03:02:48.667Z,100934.88
2018-08-19T03:05:19.722Z,100935.30
2018-08-19T03:07:50.824Z,100938.69
2018-08-19T03:10:21.859Z,100949.88
2018-08-19T03:12:52.831Z,100952.33
2018-08-19T03:15:23.865Z,100949.16
2018-08-19T03:17:54.861Z,100950.53
2018-08-19T03:20:25.859Z,100948.63
2018-08-19T03:22:56.819Z,100949.66
2018-08-19T03:25:27.877Z,100956.34
2018-08-19T03:27:58.819Z,100946.41
2018-08-19T03:30:29.823Z,100946.61
2018-08-19T03:33:02.440Z,100947.45
2018-08-19T03:35:33.655Z,100938.25
2018-08-19T03:38:08.742Z,100947.56
2018-08-19T03:40:39.705Z,100944.92
2018-08-19T03:43:12.205Z,100938.78
2018-08-19T03:45:43.403Z,100945.02
2018-08-19T03:48:21.317Z,100941.00
2018-08-19T03:50:52.618Z,100944.48
2018-08-19T03:53:23.678Z,100951.04
2018-08-19T03:55:54.715Z,100942.45
2018-08-19T03:58:25.834Z,100945.85
2018-08-19T04:00:56.855Z,100948.30
2018-08-19T04:03:27.992Z,100951.77
2018-08-19T04:06:00.862Z,100953.45
2018-08-19T04:08:40.674Z,100956.20
2018-08-19T04:11:14.744Z,100953.98
2018-08-19T04:13:45.778Z,100951.97
2018-08-19T04:16:16.833Z,100960.97
2018-08-19T04:18:48.746Z,100963.52
2018-08-19T04:21:19.886Z,100961.61
2018-08-19T04:23:51.280Z,100965.20
2018-08-19T04:26:22.462Z,100960.55
2018-08-19T04:28:53.664Z,100955.39
2018-08-19T04:31:25.501Z,100956.77
2018-08-19T04:33:56.820Z,100950.73
2018-08-19T04:36:27.819Z,100944.70
2018-08-19T04:38:59.711Z,100943.21
2018-08-19T04:41:31.212Z,100943.75
2018-08-19T04:44:02.503Z,100943.21
2018-08-19T04:46:33.869Z,100940.27
2018-08-19T04:49:04.865Z,100942.48
2018-08-19T04:51:35.865Z,100956.65
2018-08-19T04:54:07.611Z,100956.20
2018-08-19T04:56:39.632Z,100958.45
2018-08-19T04:59:10.976Z,100966.47
2018-08-19T05:01:41.540Z,100965.73
2018-08-19T05:05:51.582Z,100968.52
2018-08-19T05:08:22.865Z,100970.27
2018-08-19T05:10:54.231Z,100971.88
2018-08-19T05:13:25.728Z,100974.83
2018-08-19T05:15:56.773Z,100979.91
2018-08-19T05:18:27.768Z,100980.55
2018-08-19T05:21:06.637Z,100975.36
2018-08-19T05:23:37.976Z,100986.58
2018-08-19T05:26:08.573Z,100984.89
2018-08-19T05:28:40.005Z,100988.48
2018-08-19T05:31:11.472Z,100990.50
2018-08-19T05:33:45.300Z,100989.35
2018-08-19T05:36:16.841Z,100988.81
2018-08-19T05:38:48.673Z,100990.61
2018-08-19T05:41:20.191Z,100994.52
2018-08-19T05:43:51.685Z,100999.08
2018-08-19T05:46:23.064Z,100997.82
2018-08-19T05:48:58.446Z,100989.15
2018-08-19T05:51:29.719Z,100997.51
2018-08-19T05:54:01.345Z,100997.51
2018-08-19T05:56:32.760Z,100997.92
2018-08-19T05:59:04.381Z,100995.17
2018-08-19T06:01:35.923Z,100993.72
2018-08-19T06:04:06.662Z,101001.97
2018-08-19T06:06:38.004Z,100998.90
2018-08-19T06:09:09.884Z,100998.58
2018-08-19T06:11:41.408Z,100995.41
2018-08-19T06:14:12.834Z,100999.64
2018-08-19T06:16:44.554Z,100998.91
2018-08-19T06:19:16.210Z,100993.85
2018-08-19T06:21:48.207Z,100991.73
2018-08-19T06:24:20.225Z,100997.16
2018-08-19T06:26:51.714Z,100995.55
2018-08-19T06:29:28.307Z,100986.98
2018-08-19T06:31:59.794Z,100997.13
2018-08-19T06:34:31.645Z,100985.92
2018-08-19T06:37:02.993Z,100989.52
2018-08-19T06:39:34.582Z,100992.80
2018-08-19T06:42:05.900Z,100991.44
2018-08-19T06:44:36.591Z,100994.48
2018-08-19T06:47:08.801Z,100998.41
2018-08-19T06:49:45.196Z,100993.55
2018-08-19T06:52:16.728Z,100994.70
2018-08-19T06:54:48.200Z,100990.03
2018-08-19T06:57:19.671Z,100984.03
2018-08-19T06:59:51.188Z,100988.87
2018-08-19T07:02:24.709Z,100987.92
2018-08-19T07:04:56.442Z,100987.19
2018-08-19T07:07:27.965Z,100984.54
2018-08-19T07:09:59.721Z,100982.33
2018-08-19T07:12:31.904Z,100986.45
2018-08-19T07:15:02.574Z,100990.45
2018-08-19T07:17:34.208Z,100986.66
2018-08-19T07:20:05.972Z,100987.80
2018-08-19T07:22:37.612Z,100988.98
2018-08-19T07:25:09.207Z,100983.34
2018-08-19T07:27:40.753Z,100983.78
2018-08-19T07:30:12.310Z,100984.52
2018-08-19T07:32:43.729Z,100990.36
2018-08-19T07:35:15.256Z,100980.95
2018-08-19T07:37:46.778Z,100986.66
2018-08-19T07:40:18.288Z,100979.67
2018-08-19T07:42:49.810Z,100988.45
2018-08-19T07:45:21.417Z,100980.46
2018-08-19T07:47:52.819Z,100990.86
2018-08-19T07:50:23.892Z,100981.02
2018-08-19T07:52:54.601Z,100981.77
2018-08-19T07:55:26.006Z,100987.47
2018-08-19T07:57:57.537Z,100991.50
2018-08-19T08:00:34.221Z,100988.34
2018-08-19T08:03:05.737Z,100987.58
2018-08-19T08:05:42.218Z,100984.42
2018-08-19T08:08:13.708Z,100981.77
2018-08-19T08:10:45.369Z,100984.84
2018-08-19T08:13:17.207Z,100980.19
2018-08-19T08:15:53.704Z,100981.88
2018-08-19T08:18:25.394Z,100972.36
2018-08-19T08:21:02.846Z,100981.45
2018-08-19T08:23:34.490Z,100985.59
2018-08-19T08:26:08.859Z,100983.04
2018-08-19T08:28:40.544Z,100983.04
2018-08-19T08:31:12.508Z,100985.36
2018-08-19T08:33:43.871Z,100981.46
2018-08-19T08:36:15.549Z,100982.94
2018-08-19T08:38:47.211Z,100976.16
2018-08-19T08:41:18.752Z,100967.06
2018-08-19T08:43:50.303Z,100970.05
2018-08-19T08:46:21.777Z,100969.60
2018-08-19T08:48:53.321Z,100960.81
2018-08-19T08:51:24.712Z,100956.78
2018-08-19T08:53:56.650Z,100958.29
2018-08-19T08:56:28.262Z,100956.58
2018-08-19T08:58:59.681Z,100949.94
2018-08-19T09:01:31.328Z,100952.45
2018-08-19T09:04:02.798Z,100946.95
2018-08-19T09:06:34.185Z,100938.92
2018-08-19T09:09:06.749Z,100940.50
2018-08-19T09:11:38.336Z,100931.84
2018-08-19T09:14:09.768Z,100934.05
2018-08-19T09:16:41.405Z,100935.33
2018-08-19T09:19:12.743Z,100931.20
2018-08-19T09:21:44.413Z,100927.92
2018-08-19T09:24:15.766Z,100929.59
2018-08-19T09:26:47.310Z,100927.69
2018-08-19T09:29:18.760Z,100920.61
2018-08-19T09:31:50.398Z,100927.69
2018-08-19T09:34:21.839Z,100915.53
2018-08-19T09:36:53.388Z,100912.48
2018-08-19T09:39:24.959Z,100912.78
2018-08-19T09:41:59.625Z,100910.03
2018-08-19T09:44:31.340Z,100905.60
2018-08-19T09:47:02.836Z,100910.57
2018-08-19T09:49:34.339Z,100911.17
2018-08-19T09:52:05.857Z,100907.58
2018-08-19T09:54:38.369Z,100915.30
2018-08-19T09:57:10.781Z,100904.30
2018-08-19T09:59:42.324Z,100896.38
2018-08-19T10:02:13.785Z,100896.58
2018-08-19T10:04:45.314Z,100886.98
2018-08-19T10:07:16.814Z,100889.59
2018-08-19T10:09:48.312Z,100879.66
2018-08-19T10:12:19.823Z,100885.36
2018-08-19T10:14:51.320Z,100885.36
2018-08-19T10:17:22.784Z,100884.53
2018-08-19T10:19:54.308Z,100872.64
2018-08-19T10:22:29.662Z,100870.53
2018-08-19T10:25:01.205Z,100867.04
2018-08-19T10:27:32.754Z,100866.64
2018-08-19T10:30:04.435Z,100857.61
2018-08-19T10:32:35.824Z,100860.27
2018-08-19T10:35:12.578Z,100855.84
2018-08-19T10:37:44.312Z,100853.52
2018-08-19T10:40:15.800Z,100852.69
2018-08-19T10:42:47.216Z,100846.10
2018-08-19T10:45:22.816Z,100848.86
2018-08-19T10:47:54.480Z,100844.33
2018-08-19T10:50:31.219Z,100836.08
2018-08-19T10:53:02.878Z,100836.81
2018-08-19T10:55:34.450Z,100832.89
2018-08-19T10:58:06.331Z,100826.55
2018-08-19T11:00:37.847Z,100829.63
2018-08-19T11:03:24.197Z,100821.14
2018-08-19T11:05:56.848Z,100817.86
2018-08-19T11:08:28.347Z,100820.10
2018-08-19T11:11:01.875Z,100815.53
2018-08-19T11:13:33.721Z,100814.70
2018-08-19T11:16:05.213Z,100817.75
2018-08-19T11:18:41.331Z,100809.94
2018-08-19T11:21:18.599Z,100807.38
2018-08-19T11:23:50.217Z,100801.88
2018-08-19T11:26:21.738Z,100805.67
2018-08-19T11:29:00.576Z,100796.03
2018-08-19T11:31:33.347Z,100799.33
2018-08-19T11:34:07.393Z,100792.55
2018-08-19T11:36:46.791Z,100795.53
2018-08-19T11:39:18.747Z,100788.66
2018-08-19T11:41:50.364Z,100791.17
2018-08-19T11:44:22.459Z,100791.80
2018-08-19T11:46:53.973Z,100789.98
2018-08-19T11:49:24.668Z,100789.09
2018-08-19T11:52:01.219Z,100789.55
2018-08-19T11:54:33.558Z,100791.06
2018-08-19T11:57:09.419Z,100784.38
2018-08-19T11:59:41.987Z,100787.42
2018-08-19T12:02:21.786Z,100784.38
2018-08-19T12:04:53.314Z,100780.20
2018-08-19T12:07:24.794Z,100772.59
2018-08-19T12:10:02.236Z,100775.34
2018-08-19T12:12:47.709Z,100769.53
2018-08-19T12:15:19.215Z,100764.23
2018-08-19T12:17:50.675Z,100765.85
2018-08-19T12:20:29.208Z,100759.80
2018-08-19T12:23:00.734Z,100750.17
2018-08-19T12:25:32.417Z,100758.73
2018-08-19T12:28:03.871Z,100754.51
2018-08-19T12:30:35.680Z,100756.96
2018-08-19T12:33:23.303Z,100748.17
2018-08-19T12:35:57.721Z,100742.56
2018-08-19T12:38:29.352Z,100740.36
2018-08-19T12:41:02.677Z,100735.48
2018-08-19T12:43:35.350Z,100732.73
2018-08-19T12:46:06.787Z,100726.90
2018-08-19T12:48:37.896Z,100727.77
2018-08-19T12:51:08.299Z,100722.77
2018-08-19T12:53:39.864Z,100716.43
2018-08-19T12:56:11.627Z,100710.18
2018-08-19T12:58:42.842Z,100707.97
2018-08-19T13:01:14.410Z,100704.67
2018-08-19T13:03:45.973Z,100701.63
2018-08-19T13:06:16.561Z,100704.59
2018-08-19T13:08:47.969Z,100698.54
2018-08-19T13:11:18.591Z,100691.03
2018-08-19T13:13:49.909Z,100683.31
2018-08-19T13:16:20.537Z,100682.77
2018-08-19T13:18:52.013Z,100676.97
2018-08-19T13:21:23.739Z,100674.52
2018-08-19T13:23:55.330Z,100680.02
2018-08-19T13:26:26.810Z,100672.64
2018-08-19T13:28:58.431Z,100667.64
2018-08-19T13:31:33.571Z,100663.52
2018-08-19T13:34:05.737Z,100663.30
2018-08-19T13:36:37.426Z,100660.02
2018-08-19T13:39:11.215Z,100644.88
2018-08-19T13:41:42.761Z,100658.01
2018-08-19T13:44:14.234Z,100647.00
2018-08-19T13:46:45.740Z,100646.70
2018-08-19T13:49:23.225Z,100634.23
2018-08-19T13:51:54.740Z,100639.70
2018-08-19T13:54:26.327Z,100623.02
2018-08-19T13:56:58.215Z,100625.62
2018-08-19T13:59:29.753Z,100631.45
2018-08-19T14:02:01.425Z,100622.42
2018-08-19T14:04:32.764Z,100619.91
2018-08-19T14:07:04.329Z,100621.38
2018-08-19T14:09:35.819Z,100620.74
2018-08-19T14:12:09.782Z,100600.47
2018-08-19T14:14:42.747Z,100604.98
2018-08-19T14:17:14.319Z,100596.87
2018-08-19T14:19:49.898Z,100615.98
2018-08-19T14:22:25.042Z,100606.45
2018-08-19T14:24:56.750Z,100607.19
2018-08-19T14:27:28.307Z,100605.40
2018-08-19T14:29:59.840Z,100599.36
2018-08-19T14:32:39.224Z,100598.73
2018-08-19T14:35:10.753Z,100600.31
2018-08-19T14:37:42.305Z,100588.80
2018-08-19T14:40:17.422Z,100590.17
2018-08-19T14:42:48.909Z,100575.25
2018-08-19T14:45:19.612Z,100579.68
2018-08-19T14:50:37.714Z,100569.20
2018-08-19T14:53:08.826Z,100571.96
2018-08-19T14:55:39.872Z,100568.38
2018-08-19T14:58:19.409Z,100562.33
2018-08-19T15:00:50.699Z,100557.91
2018-08-19T15:03:21.915Z,100557.16
2018-08-19T15:06:06.579Z,100553.03
2018-08-19T15:08:37.749Z,100545.81
2018-08-19T15:11:08.877Z,100547.73
2018-08-19T15:13:39.869Z,100548.91
2018-08-19T15:16:10.914Z,100545.81
2018-08-19T15:18:42.320Z,100543.70
2018-08-19T15:21:13.634Z,100547.37
2018-08-19T15:23:44.752Z,100551.50
2018-08-19T15:26:15.841Z,100548.45
2018-08-19T15:28:46.851Z,100540.94
2018-08-19T15:31:23.211Z,100537.11
2018-08-19T15:33:55.317Z,100537.56
2018-08-19T15:36:26.637Z,100535.14
2018-08-19T15:38:57.734Z,100529.10
2018-08-19T15:41:28.910Z,100529.94
2018-08-19T15:43:59.485Z,100520.84
2018-08-19T15:46:30.699Z,100517.84
2018-08-19T15:49:01.763Z,100512.89
2018-08-19T15:51:32.885Z,100502.03
2018-08-19T15:54:03.909Z,100510.38
2018-08-19T15:56:35.031Z,100509.84
2018-08-19T15:59:08.874Z,100515.64
2018-08-19T16:01:40.763Z,100514.80
2018-08-19T16:04:17.665Z,100512.67
2018-08-19T16:06:50.214Z,100513.97
2018-08-19T16:09:22.689Z,100504.87
2018-08-19T16:11:54.232Z,100509.00
2018-08-19T16:14:33.787Z,100507.92
2018-08-19T16:17:04.617Z,100505.80
2018-08-19T16:19:35.766Z,100504.63
2018-08-19T16:22:06.852Z,100498.83
2018-08-19T16:26:58.622Z,100493.33
2018-08-19T16:29:29.683Z,100488.03
2018-08-19T16:32:00.718Z,100492.16
2018-08-19T16:34:31.723Z,100488.36
2018-08-19T16:37:02.978Z,100485.61
2018-08-19T16:39:33.366Z,100486.98
2018-08-19T16:42:04.684Z,100484.53
2018-08-19T16:44:35.898Z,100483.91
2018-08-19T16:47:06.916Z,100482.32
2018-08-19T16:49:37.359Z,100497.45
2018-08-19T16:52:08.661Z,100475.98
2018-08-19T16:54:39.760Z,100474.60
2018-08-19T16:57:10.994Z,100466.39
2018-08-19T16:59:41.873Z,100478.73
2018-08-19T17:02:12.892Z,100475.11
2018-08-19T17:04:43.866Z,100478.95
2018-08-19T17:07:14.803Z,100474.81
2018-08-19T17:09:45.883Z,100467.94
2018-08-19T17:12:16.891Z,100473.14
2018-08-19T17:14:48.325Z,100472.69
2018-08-19T17:17:19.595Z,100467.73
2018-08-19T17:19:50.713Z,100464.64
2018-08-19T17:22:21.737Z,100463.27
2018-08-19T17:24:52.673Z,100460.60
2018-08-19T17:27:23.748Z,100456.27
2018-08-19T17:29:55.005Z,100460.14
2018-08-19T17:32:26.019Z,100454.13
2018-08-19T17:34:57.649Z,100454.42
2018-08-19T17:37:29.204Z,100458.77
2018-08-19T17:40:01.420Z,100456.55
2018-08-19T17:42:32.986Z,100456.34
2018-08-19T17:45:04.556Z,100459.84
2018-08-19T17:47:35.896Z,100462.98
2018-08-19T17:50:07.359Z,100459.72
2018-08-19T17:52:38.830Z,100457.55
2018-08-19T17:55:10.376Z,100456.72
2018-08-19T17:57:41.723Z,100462.22
2018-08-19T18:00:13.313Z,100458.72
2018-08-19T18:02:44.762Z,100462.72
2018-08-19T18:05:17.317Z,100461.09
2018-08-19T18:10:34.937Z,100460.05
2018-08-19T18:13:05.293Z,100456.83
2018-08-19T18:15:36.637Z,100456.91
2018-08-19T18:18:07.797Z,100458.66
2018-08-19T18:20:40.013Z,100459.83
2018-08-19T18:23:29.336Z,100467.63
2018-08-19T18:26:00.644Z,100468.59
2018-08-19T18:28:32.738Z,100467.91
2018-08-19T18:31:10.332Z,100461.70
2018-08-19T18:33:51.618Z,100468.43
2018-08-19T18:36:24.704Z,100469.34
2018-08-19T18:38:55.651Z,100470.26
2018-08-19T18:41:30.557Z,100470.55
2018-08-19T18:44:08.313Z,100470.13
2018-08-19T18:46:39.571Z,100471.42
2018-08-19T18:49:12.719Z,100468.96
2018-08-19T18:51:48.671Z,100466.11
2018-08-19T18:54:30.450Z,100473.79
2018-08-19T18:57:09.304Z,100468.28
2018-08-19T18:59:45.199Z,100473.39
2018-08-19T19:02:16.472Z,100468.13
2018-08-19T19:04:47.701Z,100469.66
2018-08-19T19:07:18.694Z,100467.37
2018-08-19T19:09:51.545Z,100469.34
2018-08-19T19:12:24.616Z,100472.85
2018-08-19T19:14:55.735Z,100471.80
2018-08-19T19:17:27.041Z,100474.16
2018-08-19T19:19:58.727Z,100476.68
2018-08-19T19:22:30.357Z,100475.77
2018-08-19T19:25:01.783Z,100474.31
2018-08-19T19:27:33.216Z,100467.64
2018-08-19T19:30:05.709Z,100471.84
2018-08-19T19:32:37.323Z,100473.77
2018-08-19T19:35:19.753Z,100470.26
2018-08-19T19:37:51.302Z,100460.27
2018-08-19T19:40:23.776Z,100468.43
2018-08-19T19:42:55.205Z,100466.42
2018-08-19T19:45:26.732Z,100471.09
2018-08-19T19:47:58.312Z,100461.63
2018-08-19T19:50:29.780Z,100466.12
2018-08-19T19:53:00.822Z,100468.75
2018-08-19T19:55:31.927Z,100468.80
2018-08-19T19:58:04.703Z,100468.66
2018-08-19T20:01:08.637Z,100472.55
2018-08-19T20:03:45.315Z,100472.72
2018-08-19T20:06:16.840Z,100474.39
2018-08-19T20:08:48.382Z,100472.72
2018-08-19T20:11:24.817Z,100466.42
2018-08-19T20:13:59.718Z,100468.11
2018-08-19T20:16:31.343Z,100464.11
2018-08-19T20:19:02.802Z,100473.15
2018-08-19T20:21:37.798Z,100472.31
2018-08-19T20:24:09.305Z,100479.81
2018-08-19T20:26:40.714Z,100474.02
2018-08-19T20:29:12.215Z,100470.72
2018-08-19T20:31:43.724Z,100480.36
2018-08-19T20:34:15.209Z,100479.12
2018-08-19T20:36:46.729Z,100471.77
2018-08-19T20:39:18.208Z,100468.31
2018-08-19T20:41:49.795Z,100474.53
2018-08-19T20:44:21.195Z,100480.71
2018-08-19T20:46:56.734Z,100480.09
2018-08-19T20:49:28.902Z,100486.00
2018-08-19T20:51:59.572Z,100484.95
2018-08-19T20:54:30.994Z,100486.55
2018-08-19T20:57:02.722Z,100482.30
2018-08-19T20:59:36.746Z,100489.48
2018-08-19T21:02:09.713Z,100488.27
2018-08-19T21:07:04.450Z,100490.40
2018-08-19T21:09:36.727Z,100494.45
2018-08-19T21:12:07.828Z,100487.48
2018-08-19T21:14:38.876Z,100487.48
2018-08-19T21:17:09.861Z,100498.95
2018-08-19T21:19:41.652Z,100501.95
2018-08-19T21:22:12.683Z,100507.38
2018-08-19T21:24:43.690Z,100506.38
2018-08-19T21:27:14.713Z,100511.34
2018-08-19T21:29:45.877Z,100501.92
2018-08-19T21:32:16.850Z,100507.84
2018-08-19T21:34:47.814Z,100515.22
2018-08-19T21:37:50.421Z,100511.42
2018-08-19T21:40:29.317Z,100515.39
2018-08-19T21:43:00.574Z,100514.22
2018-08-19T21:45:31.728Z,100515.93
2018-08-19T21:48:02.607Z,100507.96
2018-08-19T21:50:33.577Z,100518.68
2018-08-19T21:53:09.827Z,100518.06
2018-08-19T21:55:41.891Z,100521.11
2018-08-19T21:58:12.823Z,100518.27
2018-08-19T22:03:47.574Z,100518.19
2018-08-19T22:06:18.774Z,100516.81
2018-08-19T22:08:49.812Z,100512.39
2018-08-19T22:11:20.858Z,100515.44
2018-08-19T22:13:51.819Z,100513.14
2018-08-19T22:16:22.616Z,100511.47
2018-08-19T22:18:53.914Z,100515.59
2018-08-19T22:21:25.881Z,100519.39
2018-08-19T22:24:01.201Z,100519.94
2018-08-19T22:26:32.429Z,100517.09
2018-08-19T22:29:16.685Z,100518.47
2018-08-19T22:31:47.749Z,100513.42
2018-08-19T22:34:19.208Z,100511.87
2018-08-19T22:36:50.420Z,100518.30
2018-08-19T22:39:21.750Z,100513.42
2018-08-19T22:41:53.597Z,100507.84
2018-08-19T22:44:24.804Z,100511.96
2018-08-19T22:46:56.207Z,100511.42
2018-08-19T22:49:30.385Z,100513.05
2018-08-19T22:52:24.755Z,100521.22
2018-08-19T22:54:58.911Z,100526.30
2018-08-19T22:57:29.575Z,100524.63
2018-08-19T23:00:00.879Z,100523.25
2018-08-19T23:02:33.304Z,100528.55
2018-08-19T23:05:04.897Z,100519.67
2018-08-19T23:07:35.584Z,100525.70
2018-08-19T23:10:07.339Z,100525.17
2018-08-19T23:15:37.879Z,100522.00
2018-08-19T23:18:09.448Z,100523.91
2018-08-19T23:20:40.639Z,100521.17
2018-08-19T23:23:11.644Z,100516.41
2018-08-19T23:25:42.760Z,100518.12
2018-08-19T23:28:13.840Z,100516.73
2018-08-19T23:30:44.896Z,100507.86
2018-08-19T23:33:15.889Z,100510.61
2018-08-19T23:35:46.340Z,100510.31
2018-08-19T23:38:17.737Z,100510.83
2018-08-19T23:40:48.773Z,100514.44
2018-08-19T23:43:19.849Z,100508.61
2018-08-19T23:45:50.766Z,100513.28
2018-08-19T23:48:21.824Z,100505.06
2018-08-19T23:50:52.884Z,100504.02
2018-08-19T23:53:23.854Z,100513.19
2018-08-19T23:55:54.868Z,100514.86
2018-08-19T23:58:25.856Z,100513.48
